LatviaFixed distance
Cesis Eco Trail
1 Aug2015
Distance
80km
Finishers
10179 men22 women
Winning time
6:43:40h
Median pace
7.79km/h
Pace distribution
101 finishers · 5.34–11.89 km/h · mean 8.00
Every finisher ran the same 80 km course, so these paces are directly comparable.
Histogram of finisher pace. 101 finishers ranged from 5.34 to 11.89 kilometres per hour, with a mean of 8.00 and a median of 7.79. The busiest band is 7.0 to 7.5 kilometres per hour, with 22 finishers.
Results
Ranks 51–100 of 101
| Rank | Runner | Time | Pace | Cat. | Placing |
|---|---|---|---|---|---|
| 51 | OK Alnis | 10:16:17h | 7.79 | M40 | 42nd M · 9th M40 |
| 52 | Baltosport | 10:19:55h | 7.74 | M35 | 43rd M · 9th M35 |
| 53 | DR. Klauns / Eternal R... | 10:23:52h | 7.69 | W35 | 10th F · 3rd W35 |
| 54 | *Vālodzes | 10:27:14h | 7.65 | M35 | 44th M · 10th M35 |
| 55 | *Rīga | 10:28:57h | 7.63 | M23 | 45th M · 21st M23 |
| 56 | I.P. | 10:30:57h | 7.61 | M45 | 46th M · 3rd M45 |
| 57 | Maratona Klubs/ VSK No... | 10:31:59h | 7.59 | W40 | 11th F · 2nd W40 |
| 58 | SSE Riga | 10:32:53h | 7.58 | M23 | 47th M · 22nd M23 |
| 59 | Carnikavas Sporta Centrs | 10:36:24h | 7.54 | M60 | 48th M · 1st M60 |
| 60 | Gfitness | 10:40:20h | 7.50 | W23 | 12th F · 6th W23 |
| 61 | VSK Noskrien | 10:43:20h | 7.46 | M50 | 49th M · 1st M50 |
| 62 | Latvijas Nacionālais T... | 10:47:59h | 7.41 | M35 | 50th M · 11th M35 |
| 63 | Pace on Earth | 10:48:18h | 7.40 | M35 | 51st M · 12th M35 |
| 64 | VSK Noskrien | 10:48:34h | 7.40 | W23 | 13th F · 7th W23 |
| 65 | 100Kg | 10:52:17h | 7.36 | M23 | 52nd M · 23rd M23 |
| 66 | VSK Noskrien | 10:53:44h | 7.34 | M40 | 53rd M · 10th M40 |
| 67 | *Rīga | 10:54:16h | 7.34 | MU23 | 54th M · 4th MU23 |
| 68 | VSK Noskrien | 10:54:16h | 7.34 | M23 | 54th M · 24th M23 |
| 69 | VSK Noskrien | 10:56:42h | 7.31 | M23 | 56th M · 25th M23 |
| 70 | C.T.CO | 10:56:43h | 7.31 | M23 | 57th M · 26th M23 |
| 71 | VSK Noskrien | 11:02:13h | 7.25 | M23 | 58th M · 27th M23 |
| 72 | 11:06:43h | 7.20 | M23 | 59th M · 28th M23 | |
| 73 | *Olaine | 11:06:43h | 7.20 | M23 | 59th M · 28th M23 |
| 74 | Titurgas Iespēju Parks | 11:06:43h | 7.20 | M35 | 59th M · 13th M35 |
| 75 | VSK Noskrien | 11:14:07h | 7.12 | M40 | 62nd M · 11th M40 |
| 76 | *Sigulda | 11:14:07h | 7.12 | W40 | 14th F · 3rd W40 |
| 77 | Rīgas Satiksme/AKC | 11:17:41h | 7.08 | M40 | 63rd M · 12th M40 |
| 78 | *Mazsalaca | 11:18:56h | 7.07 | W35 | 15th F · 4th W35 |
| 79 | VSK Noskien | 11:19:14h | 7.07 | MU23 | 64th M · 5th MU23 |
| 80 | 11:23:41h | 7.02 | M35 | 65th M · 14th M35 | |
| 81 | *Rīga | 11:24:36h | 7.01 | M40 | 66th M · 13th M40 |
| 82 | Salaspils Zīriņi | 11:26:48h | 6.99 | M40 | 67th M · 14th M40 |
| 83 | SK Teļubauska | 11:28:07h | 6.98 | M45 | 68th M · 4th M45 |
| 84 | Rēderu Banda | 11:38:11h | 6.88 | M35 | 69th M · 15th M35 |
| 85 | 11:38:11h | 6.88 | M40 | 69th M · 15th M40 | |
| 86 | VSK Noskrien | 11:58:46h | 6.68 | WU23 | 16th F · 2nd WU23 |
| 87 | VSK Noskrien | 12:02:11h | 6.65 | M23 | 71st M · 30th M23 |
| 88 | VSK Noskrien | 12:17:11h | 6.51 | M23 | 72nd M · 31st M23 |
| 89 | Teļubauska | 12:24:04h | 6.45 | W45 | 17th F · 1st W45 |
| 90 | *Cēsis | 12:37:14h | 6.34 | M23 | 73rd M · 32nd M23 |
| 91 | Sportlat | 12:44:03h | 6.28 | W23 | 18th F · 8th W23 |
| 92 | *Cēsis | 12:51:45h | 6.22 | M55 | 74th M · 1st M55 |
| 93 | *Valmiera | 12:51:45h | 6.22 | W40 | 19th F · 4th W40 |
| 94 | Rīgas Tulki | 12:55:05h | 6.19 | M23 | 75th M · 33rd M23 |
| 95 | *Sigulda | 12:57:40h | 6.17 | WU23 | 20th F · 3rd WU23 |
| 96 | *Rīga | 13:10:02h | 6.08 | M23 | 76th M · 34th M23 |
| 97 | *LAT-Cesis | 13:10:03h | 6.08 | M23 | 77th M · 35th M23 |
| 98 | Sportland | 13:18:49h | 6.01 | W23 | 21st F · 9th W23 |
| 99 | VSK Noskrien / LSC | 13:18:55h | 6.01 | M45 | 78th M · 5th M45 |
| 100 | VSK Noskrien | 13:22:14h | 5.98 | M35 | 79th M · 16th M35 |
- 51OK Alnis42nd M · 9th M40Time10:16:17hPace7.79Cat.M40
- 52Baltosport43rd M · 9th M35Time10:19:55hPace7.74Cat.M35
- 53DR. Klauns / Eternal R...10th F · 3rd W35Time10:23:52hPace7.69Cat.W35
- 54*Vālodzes44th M · 10th M35Time10:27:14hPace7.65Cat.M35
- 55*Rīga45th M · 21st M23Time10:28:57hPace7.63Cat.M23
- 56I.P.46th M · 3rd M45Time10:30:57hPace7.61Cat.M45
- 57Maratona Klubs/ VSK No...11th F · 2nd W40Time10:31:59hPace7.59Cat.W40
- 58SSE Riga47th M · 22nd M23Time10:32:53hPace7.58Cat.M23
- 59Carnikavas Sporta Centrs48th M · 1st M60Time10:36:24hPace7.54Cat.M60
- 60Gfitness12th F · 6th W23Time10:40:20hPace7.50Cat.W23
- 61VSK Noskrien49th M · 1st M50Time10:43:20hPace7.46Cat.M50
- 62Latvijas Nacionālais T...50th M · 11th M35Time10:47:59hPace7.41Cat.M35
- 63Pace on Earth51st M · 12th M35Time10:48:18hPace7.40Cat.M35
- 64VSK Noskrien13th F · 7th W23Time10:48:34hPace7.40Cat.W23
- 65100Kg52nd M · 23rd M23Time10:52:17hPace7.36Cat.M23
- 66VSK Noskrien53rd M · 10th M40Time10:53:44hPace7.34Cat.M40
- 67*Rīga54th M · 4th MU23Time10:54:16hPace7.34Cat.MU23
- 68VSK Noskrien54th M · 24th M23Time10:54:16hPace7.34Cat.M23
- 69VSK Noskrien56th M · 25th M23Time10:56:42hPace7.31Cat.M23
- 70C.T.CO57th M · 26th M23Time10:56:43hPace7.31Cat.M23
- 71VSK Noskrien58th M · 27th M23Time11:02:13hPace7.25Cat.M23
- 7259th M · 28th M23Time11:06:43hPace7.20Cat.M23
- 73*Olaine59th M · 28th M23Time11:06:43hPace7.20Cat.M23
- 74Titurgas Iespēju Parks59th M · 13th M35Time11:06:43hPace7.20Cat.M35
- 75VSK Noskrien62nd M · 11th M40Time11:14:07hPace7.12Cat.M40
- 76*Sigulda14th F · 3rd W40Time11:14:07hPace7.12Cat.W40
- 77Rīgas Satiksme/AKC63rd M · 12th M40Time11:17:41hPace7.08Cat.M40
- 78*Mazsalaca15th F · 4th W35Time11:18:56hPace7.07Cat.W35
- 79VSK Noskien64th M · 5th MU23Time11:19:14hPace7.07Cat.MU23
- 8065th M · 14th M35Time11:23:41hPace7.02Cat.M35
- 81*Rīga66th M · 13th M40Time11:24:36hPace7.01Cat.M40
- 82Salaspils Zīriņi67th M · 14th M40Time11:26:48hPace6.99Cat.M40
- 83SK Teļubauska68th M · 4th M45Time11:28:07hPace6.98Cat.M45
- 84Rēderu Banda69th M · 15th M35Time11:38:11hPace6.88Cat.M35
- 8569th M · 15th M40Time11:38:11hPace6.88Cat.M40
- 86VSK Noskrien16th F · 2nd WU23Time11:58:46hPace6.68Cat.WU23
- 87VSK Noskrien71st M · 30th M23Time12:02:11hPace6.65Cat.M23
- 88VSK Noskrien72nd M · 31st M23Time12:17:11hPace6.51Cat.M23
- 89Teļubauska17th F · 1st W45Time12:24:04hPace6.45Cat.W45
- 90*Cēsis73rd M · 32nd M23Time12:37:14hPace6.34Cat.M23
- 91Sportlat18th F · 8th W23Time12:44:03hPace6.28Cat.W23
- 92*Cēsis74th M · 1st M55Time12:51:45hPace6.22Cat.M55
- 93*Valmiera19th F · 4th W40Time12:51:45hPace6.22Cat.W40
- 94Rīgas Tulki75th M · 33rd M23Time12:55:05hPace6.19Cat.M23
- 95*Sigulda20th F · 3rd WU23Time12:57:40hPace6.17Cat.WU23
- 96*Rīga76th M · 34th M23Time13:10:02hPace6.08Cat.M23
- 97*LAT-Cesis77th M · 35th M23Time13:10:03hPace6.08Cat.M23
- 98Sportland21st F · 9th W23Time13:18:49hPace6.01Cat.W23
- 99VSK Noskrien / LSC78th M · 5th M45Time13:18:55hPace6.01Cat.M45
- 100VSK Noskrien79th M · 16th M35Time13:22:14hPace5.98Cat.M35
Showing ranks 51–100 of 101